Dublin Express — DDSB2 — position and weather

sailwx.info

Track history (hours):
 
Tides and Currents Weather Stations Pressure Air Temp Water Temp Dewpoint Dewpoint Depression Visibility Wind Speed Wind Dir Waves Ship Positions

Dublin Express

Last reported at 2018-Feb-20 18:00 UTC. Time now 2018-Feb-20 21:52 UTC.
Position S 18°48' W 075°42'.

Length 281 m; beam 32 m; draft 13 m.

Type: Ship. MMSI: 218023000.

Wind from 140 at 6 knots

Barometer 1013.3 mb
Air temperature 26.5 ° C
Visibility: greater than 10.8 NM
Dewpoint 14.6 ° C
Water temperature 23.0 ° C

Date/timePositionNaut miles runAvg speedWind from/ knotsBaromVisibWave heightAir tempDewpointWater temp
2018-Feb-20 18:00S 18°48' W 075°42'12320.6 140 / 61013.310.8 26.514.623.0
2018-Feb-20 12:00S 16°48' W 076°12'11619.4 170 / 101012.910.8 23.018.521.8
2018-Feb-20 06:00S 14°54' W 076°36'216 6.0 150 / 101012.010.8 22.019.919.8
2018-Feb-18 18:00S 11°30' W 077°48'11919.9 160 / 101011.4 5.4 23.520.617.8
2018-Feb-18 12:00S 09°54' W 079°00'46719.4 140 / 101012.110.8 22.020.819.0
2018-Feb-17 12:00S 02°30' W 081°24'37320.7 190 / 91010.910.8 26.023.224.8
2018-Feb-16 18:00N 03°36' W 080°12'33714.6 020 / 141011.410.8 29.020.421.0
2018-Feb-15 18:50N 09°13' W 079°56'0 0.0
2018-Feb-15 16:52N 09°13' W 079°56'0 0.0
2018-Feb-15 16:09N 09°13' W 079°56'0 0.2
2018-Feb-15 16:00N 09°13' W 079°56'7 1.1
2018-Feb-15 08:55N 09°20' W 079°55'3 6.7
2018-Feb-15 08:30N 09°23' W 079°55'4 7.8
2018-Feb-15 08:00N 09°27' W 079°55'3 5.6
2018-Feb-15 07:30N 09°29' W 079°57'2 3.1
2018-Feb-15 06:58N 09°28' W 079°57'0 0.2
2018-Feb-15 06:25N 09°28' W 079°57'0 0.1
2018-Feb-15 05:55N 09°28' W 079°57'0 0.1
2018-Feb-15 05:28N 09°28' W 079°57'0 0.0
2018-Feb-15 04:58N 09°28' W 079°57'0 0.1
2018-Feb-15 04:28N 09°28' W 079°57'0 0.1
2018-Feb-15 03:55N 09°28' W 079°57'0 0.1
2018-Feb-15 03:28N 09°28' W 079°57'0 0.1
2018-Feb-15 02:57N 09°28' W 079°57'0 0.0
2018-Feb-15 02:29N 09°28' W 079°57'0 0.1
2018-Feb-15 01:59N 09°28' W 079°57'0 0.0
2018-Feb-15 01:26N 09°28' W 079°57'0 0.0
2018-Feb-15 01:00N 09°28' W 079°57'0 0.1
2018-Feb-15 00:29N 09°28' W 079°57'0 0.1
2018-Feb-14 23:59N 09°28' W 079°57'0 0.0
2018-Feb-14 23:30N 09°28' W 079°57'0 0.0
2018-Feb-14 23:00N 09°28' W 079°57'0 0.1
2018-Feb-14 22:29N 09°28' W 079°57'0 0.1
2018-Feb-14 21:59N 09°28' W 079°57'0 0.0
2018-Feb-14 21:30N 09°28' W 079°57'0 0.1
2018-Feb-14 21:00N 09°28' W 079°57'0 0.0
2018-Feb-14 20:29N 09°28' W 079°57'0 0.1
2018-Feb-14 20:00N 09°28' W 079°57'0 0.1
2018-Feb-14 19:30N 09°28' W 079°57'0 0.1
2018-Feb-14 19:00N 09°28' W 079°57'0 0.0
2018-Feb-14 18:30N 09°28' W 079°57'0 0.1
2018-Feb-14 17:59N 09°28' W 079°57'1 1.8
2018-Feb-14 17:30N 09°27' W 079°58'4 7.2
2018-Feb-14 17:00N 09°25' W 080°01'4 7.5
2018-Feb-14 16:30N 09°22' W 080°03'0 0.7
2018-Feb-14 16:00N 09°23' W 080°03'1 1.9
2018-Feb-14 15:30N 09°24' W 080°03'1 1.9
2018-Feb-14 15:00N 09°24' W 080°03'1 1.9
2018-Feb-14 14:30N 09°25' W 080°02'1 2.0
2018-Feb-14 14:00N 09°26' W 080°02'1 1.8
2018-Feb-14 13:30N 09°27' W 080°02'1 2.0
2018-Feb-14 13:00N 09°28' W 080°01'1 2.0
2018-Feb-14 12:30N 09°29' W 080°01'1 1.9
2018-Feb-14 11:59N 09°30' W 080°00'0 0.4
2018-Feb-14 11:29N 09°30' W 080°00'2 4.9
2018-Feb-14 11:00N 09°27' W 080°02'1 1.9
2018-Feb-14 10:30N 09°28' W 080°01'1 1.9
2018-Feb-14 10:00N 09°29' W 080°01'1 1.8
2018-Feb-14 09:30N 09°30' W 080°00'1 1.9
2018-Feb-14 08:54N 09°29' W 080°01'2 4.3
2018-Feb-14 08:30N 09°28' W 080°02'1 2.0
2018-Feb-14 08:00N 09°28' W 080°01'1 1.9
2018-Feb-14 07:30N 09°29' W 080°01'1 1.3
2018-Feb-14 06:53N 09°30' W 080°00'2 4.3
2018-Feb-14 06:30N 09°29' W 080°01'1 1.4
2018-Feb-14 06:00N 09°28' W 080°01'1 1.9
2018-Feb-14 05:30N 09°29' W 080°01'1 1.9
2018-Feb-14 05:00N 09°29' W 080°00'1 1.7
2018-Feb-14 04:29N 09°30' W 079°60'2 3.6
2018-Feb-14 03:50N 09°28' W 080°01'1 1.1
2018-Feb-14 03:19N 09°28' W 080°02'1 1.7
2018-Feb-14 02:58N 09°29' W 080°02'1 1.8
2018-Feb-14 02:30N 09°30' W 080°01'1 1.5
2018-Feb-14 01:42N 09°30' W 080°00'1 3.1
2018-Feb-14 01:24N 09°30' W 080°01'2 5.4
2018-Feb-14 00:57N 09°28' W 080°02'1 1.8
2018-Feb-14 00:30N 09°28' W 080°02'1 1.8
2018-Feb-13 23:59N 09°29' W 080°01'1 1.8
2018-Feb-13 23:29N 09°30' W 080°00'1 1.7
2018-Feb-13 23:00N 09°29' W 079°60'3 5.8
2018-Feb-13 22:29N 09°26' W 080°01'1 1.8
2018-Feb-13 21:58N 09°27' W 080°01'1 1.8
2018-Feb-13 21:29N 09°28' W 080°00'1 1.8
2018-Feb-13 21:00N 09°29' W 079°60'1 1.9
2018-Feb-13 20:30N 09°29' W 079°59'0 0.9
2018-Feb-13 20:00N 09°30' W 079°59'0 0.9
2018-Feb-13 19:30N 09°29' W 079°59'1 1.3
2018-Feb-13 19:01N 09°29' W 079°58'3 6.3
2018-Feb-13 18:30N 09°28' W 079°55'1 1.3
2018-Feb-13 18:00N 09°27' W 079°56'1 1.2
2018-Feb-13 17:30N 09°27' W 079°56'1 1.5
2018-Feb-13 17:00N 09°27' W 079°55'1 1.4
2018-Feb-13 16:30N 09°27' W 079°56'0 0.6
2018-Feb-13 16:00N 09°27' W 079°56'0 0.2
2018-Feb-13 15:30N 09°27' W 079°56'0 0.3
2018-Feb-13 15:00N 09°27' W 079°56'2 3.3
2018-Feb-13 14:30N 09°25' W 079°56'1 1.7
2018-Feb-13 14:00N 09°26' W 079°55'1 2.1
2018-Feb-13 13:28N 09°27' W 079°56'0 0.4
2018-Feb-13 13:00N 09°27' W 079°56'0 0.6
2018-Feb-13 12:30N 09°27' W 079°56'0 0.2
2018-Feb-13 12:00N 09°27' W 079°56'0 0.2
2018-Feb-13 11:30N 09°27' W 079°56'0 0.0
2018-Feb-13 11:00N 09°27' W 079°56'0 0.1
2018-Feb-13 10:30N 09°27' W 079°56'0 0.1
2018-Feb-13 10:00N 09°27' W 079°56'0 0.1
2018-Feb-13 09:28N 09°27' W 079°56'0 0.1
2018-Feb-13 09:01N 09°27' W 079°56'0 0.0
2018-Feb-13 08:30N 09°27' W 079°56'0 0.2
2018-Feb-13 08:01N 09°27' W 079°56'0 0.1
2018-Feb-13 07:31N 09°27' W 079°56'0 0.1
2018-Feb-13 07:00N 09°27' W 079°56'0 0.0
2018-Feb-13 06:31N 09°27' W 079°56'0 0.1
2018-Feb-13 06:00N 09°27' W 079°56'0 0.3
2018-Feb-13 05:30N 09°27' W 079°55'1 2.5
2018-Feb-13 05:00N 09°28' W 079°54'5 9.4
2018-Feb-13 04:30N 09°32' W 079°53'510.7
2018-Feb-13 04:00N 09°37' W 079°51'10510.5
2018-Feb-12 18:00N 09°54' W 078°06'291 6.1 040 / 131011.1 5.4 28.023.825.1
2018-Feb-10 18:00N 13°54' W 075°18'   080 / 301012.110.8 28.023.225.1
Track history (hours):
 
Tides and Currents Weather Stations Pressure Air Temp Water Temp Dewpoint Dewpoint Depression Visibility Wind Speed Wind Dir Waves Ship Positions

Dublin Express

Last reported at 2018-Feb-20 18:00 UTC. Time now 2018-Feb-20 21:52 UTC.
Position S 18°48' W 075°42'.

Length 281 m; beam 32 m; draft 13 m.

Type: Ship. MMSI: 218023000.

Wind from 140 at 6 knots

Barometer 1013.3 mb
Air temperature 26.5 ° C
Visibility: greater than 10.8 NM
Dewpoint 14.6 ° C
Water temperature 23.0 ° C

Date/timePositionNaut miles runAvg speedWind from/ knotsBaromVisibWave heightAir tempDewpointWater temp
2018-Feb-20 18:00S 18°48' W 075°42'12320.6 140 / 61013.310.8 26.514.623.0
2018-Feb-20 12:00S 16°48' W 076°12'11619.4 170 / 101012.910.8 23.018.521.8
2018-Feb-20 06:00S 14°54' W 076°36'216 6.0 150 / 101012.010.8 22.019.919.8
2018-Feb-18 18:00S 11°30' W 077°48'11919.9 160 / 101011.4 5.4 23.520.617.8
2018-Feb-18 12:00S 09°54' W 079°00'46719.4 140 / 101012.110.8 22.020.819.0
2018-Feb-17 12:00S 02°30' W 081°24'37320.7 190 / 91010.910.8 26.023.224.8
2018-Feb-16 18:00N 03°36' W 080°12'33714.6 020 / 141011.410.8 29.020.421.0
2018-Feb-15 18:50N 09°13' W 079°56'0 0.0
2018-Feb-15 16:52N 09°13' W 079°56'0 0.0
2018-Feb-15 16:09N 09°13' W 079°56'0 0.2
2018-Feb-15 16:00N 09°13' W 079°56'7 1.1
2018-Feb-15 08:55N 09°20' W 079°55'3 6.7
2018-Feb-15 08:30N 09°23' W 079°55'4 7.8
2018-Feb-15 08:00N 09°27' W 079°55'3 5.6
2018-Feb-15 07:30N 09°29' W 079°57'2 3.1
2018-Feb-15 06:58N 09°28' W 079°57'0 0.2
2018-Feb-15 06:25N 09°28' W 079°57'0 0.1
2018-Feb-15 05:55N 09°28' W 079°57'0 0.1
2018-Feb-15 05:28N 09°28' W 079°57'0 0.0
2018-Feb-15 04:58N 09°28' W 079°57'0 0.1
2018-Feb-15 04:28N 09°28' W 079°57'0 0.1
2018-Feb-15 03:55N 09°28' W 079°57'0 0.1
2018-Feb-15 03:28N 09°28' W 079°57'0 0.1
2018-Feb-15 02:57N 09°28' W 079°57'0 0.0
2018-Feb-15 02:29N 09°28' W 079°57'0 0.1
2018-Feb-15 01:59N 09°28' W 079°57'0 0.0
2018-Feb-15 01:26N 09°28' W 079°57'0 0.0
2018-Feb-15 01:00N 09°28' W 079°57'0 0.1
2018-Feb-15 00:29N 09°28' W 079°57'0 0.1
2018-Feb-14 23:59N 09°28' W 079°57'0 0.0
2018-Feb-14 23:30N 09°28' W 079°57'0 0.0
2018-Feb-14 23:00N 09°28' W 079°57'0 0.1
2018-Feb-14 22:29N 09°28' W 079°57'0 0.1
2018-Feb-14 21:59N 09°28' W 079°57'0 0.0
2018-Feb-14 21:30N 09°28' W 079°57'0 0.1
2018-Feb-14 21:00N 09°28' W 079°57'0 0.0
2018-Feb-14 20:29N 09°28' W 079°57'0 0.1
2018-Feb-14 20:00N 09°28' W 079°57'0 0.1
2018-Feb-14 19:30N 09°28' W 079°57'0 0.1
2018-Feb-14 19:00N 09°28' W 079°57'0 0.0
2018-Feb-14 18:30N 09°28' W 079°57'0 0.1
2018-Feb-14 17:59N 09°28' W 079°57'1 1.8
2018-Feb-14 17:30N 09°27' W 079°58'4 7.2
2018-Feb-14 17:00N 09°25' W 080°01'4 7.5
2018-Feb-14 16:30N 09°22' W 080°03'0 0.7
2018-Feb-14 16:00N 09°23' W 080°03'1 1.9
2018-Feb-14 15:30N 09°24' W 080°03'1 1.9
2018-Feb-14 15:00N 09°24' W 080°03'1 1.9
2018-Feb-14 14:30N 09°25' W 080°02'1 2.0
2018-Feb-14 14:00N 09°26' W 080°02'1 1.8
2018-Feb-14 13:30N 09°27' W 080°02'1 2.0
2018-Feb-14 13:00N 09°28' W 080°01'1 2.0
2018-Feb-14 12:30N 09°29' W 080°01'1 1.9
2018-Feb-14 11:59N 09°30' W 080°00'0 0.4
2018-Feb-14 11:29N 09°30' W 080°00'2 4.9
2018-Feb-14 11:00N 09°27' W 080°02'1 1.9
2018-Feb-14 10:30N 09°28' W 080°01'1 1.9
2018-Feb-14 10:00N 09°29' W 080°01'1 1.8
2018-Feb-14 09:30N 09°30' W 080°00'1 1.9
2018-Feb-14 08:54N 09°29' W 080°01'2 4.3
2018-Feb-14 08:30N 09°28' W 080°02'1 2.0
2018-Feb-14 08:00N 09°28' W 080°01'1 1.9
2018-Feb-14 07:30N 09°29' W 080°01'1 1.3
2018-Feb-14 06:53N 09°30' W 080°00'2 4.3
2018-Feb-14 06:30N 09°29' W 080°01'1 1.4
2018-Feb-14 06:00N 09°28' W 080°01'1 1.9
2018-Feb-14 05:30N 09°29' W 080°01'1 1.9
2018-Feb-14 05:00N 09°29' W 080°00'1 1.7
2018-Feb-14 04:29N 09°30' W 079°60'2 3.6
2018-Feb-14 03:50N 09°28' W 080°01'1 1.1
2018-Feb-14 03:19N 09°28' W 080°02'1 1.7
2018-Feb-14 02:58N 09°29' W 080°02'1 1.8
2018-Feb-14 02:30N 09°30' W 080°01'1 1.5
2018-Feb-14 01:42N 09°30' W 080°00'1 3.1
2018-Feb-14 01:24N 09°30' W 080°01'2 5.4
2018-Feb-14 00:57N 09°28' W 080°02'1 1.8
2018-Feb-14 00:30N 09°28' W 080°02'1 1.8
2018-Feb-13 23:59N 09°29' W 080°01'1 1.8
2018-Feb-13 23:29N 09°30' W 080°00'1 1.7
2018-Feb-13 23:00N 09°29' W 079°60'3 5.8
2018-Feb-13 22:29N 09°26' W 080°01'1 1.8
2018-Feb-13 21:58N 09°27' W 080°01'1 1.8
2018-Feb-13 21:29N 09°28' W 080°00'1 1.8
2018-Feb-13 21:00N 09°29' W 079°60'1 1.9
2018-Feb-13 20:30N 09°29' W 079°59'0 0.9
2018-Feb-13 20:00N 09°30' W 079°59'0 0.9
2018-Feb-13 19:30N 09°29' W 079°59'1 1.3
2018-Feb-13 19:01N 09°29' W 079°58'3 6.3
2018-Feb-13 18:30N 09°28' W 079°55'1 1.3
2018-Feb-13 18:00N 09°27' W 079°56'1 1.2
2018-Feb-13 17:30N 09°27' W 079°56'1 1.5
2018-Feb-13 17:00N 09°27' W 079°55'1 1.4
2018-Feb-13 16:30N 09°27' W 079°56'0 0.6
2018-Feb-13 16:00N 09°27' W 079°56'0 0.2
2018-Feb-13 15:30N 09°27' W 079°56'0 0.3
2018-Feb-13 15:00N 09°27' W 079°56'2 3.3
2018-Feb-13 14:30N 09°25' W 079°56'1 1.7
2018-Feb-13 14:00N 09°26' W 079°55'1 2.1
2018-Feb-13 13:28N 09°27' W 079°56'0 0.4
2018-Feb-13 13:00N 09°27' W 079°56'0 0.6
2018-Feb-13 12:30N 09°27' W 079°56'0 0.2
2018-Feb-13 12:00N 09°27' W 079°56'0 0.2
2018-Feb-13 11:30N 09°27' W 079°56'0 0.0
2018-Feb-13 11:00N 09°27' W 079°56'0 0.1
2018-Feb-13 10:30N 09°27' W 079°56'0 0.1
2018-Feb-13 10:00N 09°27' W 079°56'0 0.1
2018-Feb-13 09:28N 09°27' W 079°56'0 0.1
2018-Feb-13 09:01N 09°27' W 079°56'0 0.0
2018-Feb-13 08:30N 09°27' W 079°56'0 0.2
2018-Feb-13 08:01N 09°27' W 079°56'0 0.1
2018-Feb-13 07:31N 09°27' W 079°56'0 0.1
2018-Feb-13 07:00N 09°27' W 079°56'0 0.0
2018-Feb-13 06:31N 09°27' W 079°56'0 0.1
2018-Feb-13 06:00N 09°27' W 079°56'0 0.3
2018-Feb-13 05:30N 09°27' W 079°55'1 2.5
2018-Feb-13 05:00N 09°28' W 079°54'5 9.4
2018-Feb-13 04:30N 09°32' W 079°53'510.7
2018-Feb-13 04:00N 09°37' W 079°51'10510.5
2018-Feb-12 18:00N 09°54' W 078°06'291 6.1 040 / 131011.1 5.4 28.023.825.1
2018-Feb-10 18:00N 13°54' W 075°18'   080 / 301012.110.8 28.023.225.1

Dump ship's entire track history